Algoma, West Virginia
Current Conditions -  °F | °C
As of 8:52 AM on Tuesday 27 Jan 2015 (Local Time) from KBLF Reporting Station
Few Clouds Few Clouds  
Wind Chill: 10°   Ceiling: Unl
Heat Index: 21°   Visibility: 10mi
Dew Point: 12°   Wind: 10mph
Humidity: 68%   Direction: 280°W
Pressure: 29.81"   Gusts: NA
Location:  37.3807°N, 81.4099°W
Report Text: KBLF 271352Z AUTO 28009KT 10SM FEW015 M06/M11 A2981 RMK AO2 SLP121 T10611111
Loading
Personal Weather Stations






























Interactive Weather Map New forecast layout! Learn more

10-Day Weather Forecast

Advertisements
Track Severe Weather on mobile